sensor_id;sensor_type;location;lat;lon;timestamp;pressure;altitude;pressure_sealevel;temperature;humidity
76044;BME280;64740;34.694;33.088;2023-04-03T00:01:16;1039.7;;;18.3;53.2
76044;BME280;64740;34.694;33.088;2023-04-03T00:06:39;1039.7;;;18.3;53.2
76044;BME280;64740;34.694;33.088;2023-04-03T00:11:23;1039.6;;;18.3;53.2
76044;BME280;64740;34.694;33.088;2023-04-03T00:16:12;1039.5;;;18.2;53.2
76044;BME280;64740;34.694;33.088;2023-04-03T00:21:37;1039.5;;;18.2;53.2
76044;BME280;64740;34.694;33.088;2023-04-03T00:26:29;1039.4;;;18.2;53.1
76044;BME280;64740;34.694;33.088;2023-04-03T00:31:37;1039.4;;;18.2;53
76044;BME280;64740;34.694;33.088;2023-04-03T00:36:21;1039.4;;;18.1;53
76044;BME280;64740;34.694;33.088;2023-04-03T00:40:57;1039.3;;;18.2;53
76044;BME280;64740;34.694;33.088;2023-04-03T00:46:37;1039.3;;;18.2;52.9
76044;BME280;64740;34.694;33.088;2023-04-03T00:51:19;1039.3;;;18.2;52.8
76044;BME280;64740;34.694;33.088;2023-04-03T00:56:39;1039.3;;;18.2;52.7
76044;BME280;64740;34.694;33.088;2023-04-03T01:01:22;1039.3;;;18.2;52.6
76044;BME280;64740;34.694;33.088;2023-04-03T01:06:07;1039.3;;;18.2;52.7
76044;BME280;64740;34.694;33.088;2023-04-03T01:11:37;1039.3;;;18.1;52.7
76044;BME280;64740;34.694;33.088;2023-04-03T01:16:15;1039.3;;;18.1;52.7
76044;BME280;64740;34.694;33.088;2023-04-03T01:21:49;1039.2;;;18.1;52.7
76044;BME280;64740;34.694;33.088;2023-04-03T01:26:21;1039.2;;;18.1;52.6
76044;BME280;64740;34.694;33.088;2023-04-03T01:31:12;1039.2;;;18.1;52.5
76044;BME280;64740;34.694;33.088;2023-04-03T01:36:39;1039.1;;;18.1;52.5
76044;BME280;64740;34.694;33.088;2023-04-03T01:41:09;1039.1;;;18.1;52.4
76044;BME280;64740;34.694;33.088;2023-04-03T01:46:41;1039.1;;;18;52.4
76044;BME280;64740;34.694;33.088;2023-04-03T01:51:21;1039;;;18;52.3
76044;BME280;64740;34.694;33.088;2023-04-03T01:56:07;1039;;;18;52.4
76044;BME280;64740;34.694;33.088;2023-04-03T02:01:37;1039;;;18;52.3
76044;BME280;64740;34.694;33.088;2023-04-03T02:16:15;1039;;;18;52.1
76044;BME280;64740;34.694;33.088;2023-04-03T02:20:57;1039.1;;;18;52
76044;BME280;64740;34.694;33.088;2023-04-03T02:26:37;1039.1;;;18;51.9
76044;BME280;64740;34.694;33.088;2023-04-03T02:31:11;1039.1;;;18;51.8
76044;BME280;64740;34.694;33.088;2023-04-03T02:36:37;1039.1;;;17.9;51.9
76044;BME280;64740;34.694;33.088;2023-04-03T02:41:23;1039.1;;;17.7;52
76044;BME280;64740;34.694;33.088;2023-04-03T02:45:59;1039.1;;;17.7;52.1
76044;BME280;64740;34.694;33.088;2023-04-03T02:51:39;1039.1;;;17.6;52.1
76044;BME280;64740;34.694;33.088;2023-04-03T02:56:31;1039;;;17.4;52.2
76044;BME280;64740;34.694;33.088;2023-04-03T03:01:39;1039;;;17.4;52.2
76044;BME280;64740;34.694;33.088;2023-04-03T03:06:14;1039;;;17.4;52.2
76044;BME280;64740;34.694;33.088;2023-04-03T03:11:08;1039;;;17.3;52.5
76044;BME280;64740;34.694;33.088;2023-04-03T03:16:37;1039;;;17.4;52.4
76044;BME280;64740;34.694;33.088;2023-04-03T03:21:15;1039;;;17.4;52.4
76044;BME280;64740;34.694;33.088;2023-04-03T03:26:39;1039;;;17.4;52.4
76044;BME280;64740;34.694;33.088;2023-04-03T03:31:21;1039;;;17.5;52.2
76044;BME280;64740;34.694;33.088;2023-04-03T03:35:57;1039.1;;;17.5;52
76044;BME280;64740;34.694;33.088;2023-04-03T03:51:27;1039.1;;;17.5;52
76044;BME280;64740;34.694;33.088;2023-04-03T03:56:37;1039.1;;;17.6;51.6
76044;BME280;64740;34.694;33.088;2023-04-03T04:00:59;1039.2;;;17.7;51.2
76044;BME280;64740;34.694;33.088;2023-04-03T04:06:37;1039.2;;;17.8;51
76044;BME280;64740;34.694;33.088;2023-04-03T04:10:57;1039.2;;;17.7;50.9
76044;BME280;64740;34.694;33.088;2023-04-03T04:16:27;1039.2;;;17.7;50.8
76044;BME280;64740;34.694;33.088;2023-04-03T04:21:38;1039.2;;;17.7;50.6
76044;BME280;64740;34.694;33.088;2023-04-03T04:26:29;1039.2;;;17.7;50.6
76044;BME280;64740;34.694;33.088;2023-04-03T04:31:37;1039.3;;;17.9;50.6
76044;BME280;64740;34.694;33.088;2023-04-03T04:36:17;1039.3;;;18.1;50.5
76044;BME280;64740;34.694;33.088;2023-04-03T04:41:29;1039.3;;;18.2;50.2
76044;BME280;64740;34.694;33.088;2023-04-03T04:46:37;1039.3;;;18.3;50
76044;BME280;64740;34.694;33.088;2023-04-03T04:51:18;1039.4;;;18.3;50
76044;BME280;64740;34.694;33.088;2023-04-03T04:56:25;1039.4;;;18.4;49.8
76044;BME280;64740;34.694;33.088;2023-04-03T05:00:58;1039.4;;;18.5;49.8
76044;BME280;64740;34.694;33.088;2023-04-03T05:06:29;1039.4;;;18.7;49.7
76044;BME280;64740;34.694;33.088;2023-04-03T05:21:39;1039.4;;;19;49.4
76044;BME280;64740;34.694;33.088;2023-04-03T05:26:07;1039.3;;;19.5;48.9
76044;BME280;64740;34.694;33.088;2023-04-03T05:31:29;1039.3;;;19.7;48.6
76044;BME280;64740;34.694;33.088;2023-04-03T05:36:39;1039.4;;;19.9;48.9
76044;BME280;64740;34.694;33.088;2023-04-03T05:41:14;1039.4;;;20;49.5
76044;BME280;64740;34.694;33.088;2023-04-03T05:51:14;1039.4;;;20;49.5
76044;BME280;64740;34.694;33.088;2023-04-03T05:56:29;1039.5;;;20.3;50.2
76044;BME280;64740;34.694;33.088;2023-04-03T06:01:37;1039.5;;;20.6;50.7
76044;BME280;64740;34.694;33.088;2023-04-03T06:06:08;1039.5;;;20.7;50.7
76044;BME280;64740;34.694;33.088;2023-04-03T06:11:37;1039.6;;;20.8;50.9
76044;BME280;64740;34.694;33.088;2023-04-03T06:16:19;1039.6;;;20.9;51.2
76044;BME280;64740;34.694;33.088;2023-04-03T06:21:17;1039.6;;;21;51.5
76044;BME280;64740;34.694;33.088;2023-04-03T06:26:37;1039.6;;;21.1;52.1
76044;BME280;64740;34.694;33.088;2023-04-03T07:01:40;1039.6;;;21.1;52.1
76044;BME280;64740;34.694;33.088;2023-04-03T07:06:10;1039.6;;;21.3;54.1
76044;BME280;64740;34.694;33.088;2023-04-03T07:11:30;1039.6;;;21.5;56
76044;BME280;64740;34.694;33.088;2023-04-03T07:41:38;1039.7;;;21.5;56
76044;BME280;64740;34.694;33.088;2023-04-03T07:45:58;1039.7;;;21.9;55.9
76044;BME280;64740;34.694;33.088;2023-04-03T07:51:38;1039.6;;;22.1;55.8
76044;BME280;64740;34.694;33.088;2023-04-03T07:56:22;1039.6;;;22.1;55.9
76044;BME280;64740;34.694;33.088;2023-04-03T08:01:26;1039.6;;;22.2;55.9
76044;BME280;64740;34.694;33.088;2023-04-03T08:06:28;1039.6;;;22.2;55.5
76044;BME280;64740;34.694;33.088;2023-04-03T08:11:09;1039.6;;;22.2;55.3
76044;BME280;64740;34.694;33.088;2023-04-03T08:16:15;1039.6;;;22.3;55.1
76044;BME280;64740;34.694;33.088;2023-04-03T08:21:30;1039.6;;;22.4;55.2
76044;BME280;64740;34.694;33.088;2023-04-03T08:26:38;1039.6;;;22.5;55.2
76044;BME280;64740;34.694;33.088;2023-04-03T08:31:30;1039.6;;;22.5;54.8
76044;BME280;64740;34.694;33.088;2023-04-03T08:36:15;1039.5;;;22.6;55.1
76044;BME280;64740;34.694;33.088;2023-04-03T08:41:17;1039.5;;;22.8;54.8
76044;BME280;64740;34.694;33.088;2023-04-03T08:46:33;1039.5;;;22.9;54.5
76044;BME280;64740;34.694;33.088;2023-04-03T08:51:36;1039.5;;;23.1;54.2
76044;BME280;64740;34.694;33.088;2023-04-03T08:56:22;1039.6;;;23.1;54.2
76044;BME280;64740;34.694;33.088;2023-04-03T09:01:16;1039.6;;;23;54.3
76044;BME280;64740;34.694;33.088;2023-04-03T09:06:14;1039.6;;;22.9;54.6
76044;BME280;64740;34.694;33.088;2023-04-03T09:11:34;1039.6;;;22.9;54.6
76044;BME280;64740;34.694;33.088;2023-04-03T09:16:39;1039.5;;;22.9;54.9
76044;BME280;64740;34.694;33.088;2023-04-03T09:21:31;1039.5;;;22.9;55.1
76044;BME280;64740;34.694;33.088;2023-04-03T09:26:14;1039.5;;;23;54.7
76044;BME280;64740;34.694;33.088;2023-04-03T09:31:22;1039.5;;;23;54
76044;BME280;64740;34.694;33.088;2023-04-03T09:36:38;1039.5;;;23.1;54
76044;BME280;64740;34.694;33.088;2023-04-03T09:41:38;1039.5;;;23.2;53.9
76044;BME280;64740;34.694;33.088;2023-04-03T09:46:30;1039.4;;;23.3;53.7
76044;BME280;64740;34.694;33.088;2023-04-03T09:51:08;1039.4;;;23.3;53.4
76044;BME280;64740;34.694;33.088;2023-04-03T09:56:18;1039.4;;;23.3;53.2
76044;BME280;64740;34.694;33.088;2023-04-03T10:01:30;1039.3;;;23.4;53.3
76044;BME280;64740;34.694;33.088;2023-04-03T10:06:39;1039.3;;;23.5;52.9
76044;BME280;64740;34.694;33.088;2023-04-03T10:11:32;1039.3;;;23.6;52.7
76044;BME280;64740;34.694;33.088;2023-04-03T10:15:59;1039.2;;;23.7;52.3
76044;BME280;64740;34.694;33.088;2023-04-03T10:20:59;1039.1;;;23.8;51.9
76044;BME280;64740;34.694;33.088;2023-04-03T10:26:32;1039.1;;;23.9;52.1
76044;BME280;64740;34.694;33.088;2023-04-03T10:31:41;1039;;;24.1;51.8
76044;BME280;64740;34.694;33.088;2023-04-03T10:36:34;1038.9;;;24.4;51.3
76044;BME280;64740;34.694;33.088;2023-04-03T10:40:59;1038.9;;;24.6;50.7
76044;BME280;64740;34.694;33.088;2023-04-03T10:46:15;1038.9;;;24.8;50
76044;BME280;64740;34.694;33.088;2023-04-03T10:51:41;1038.9;;;25.2;49.2
76044;BME280;64740;34.694;33.088;2023-04-03T10:56:40;1038.8;;;25.5;48.7
76044;BME280;64740;34.694;33.088;2023-04-03T11:01:08;1038.7;;;25.8;48
76044;BME280;64740;34.694;33.088;2023-04-03T11:06:08;1038.6;;;26;47.4
76044;BME280;64740;34.694;33.088;2023-04-03T11:11:11;1038.5;;;26.3;46.7
76044;BME280;64740;34.694;33.088;2023-04-03T11:16:35;1038.5;;;26.5;46.5
76044;BME280;64740;34.694;33.088;2023-04-03T11:21:42;1038.4;;;26.8;45.8
76044;BME280;64740;34.694;33.088;2023-04-03T11:26:32;1038.4;;;27.1;45.3
76044;BME280;64740;34.694;33.088;2023-04-03T11:31:33;1038.3;;;27.4;44.3
76044;BME280;64740;34.694;33.088;2023-04-03T11:36:18;1038.1;;;27.6;44
76044;BME280;64740;34.694;33.088;2023-04-03T11:41:32;1038.1;;;27.7;43.7
76044;BME280;64740;34.694;33.088;2023-04-03T11:46:56;1038;;;28.1;43
76044;BME280;64740;34.694;33.088;2023-04-03T11:51:38;1038;;;28.4;42.4
76044;BME280;64740;34.694;33.088;2023-04-03T11:56:30;1037.9;;;28.8;41.6
76044;BME280;64740;34.694;33.088;2023-04-03T12:01:10;1037.8;;;29;41.4
76044;BME280;64740;34.694;33.088;2023-04-03T12:06:42;1037.7;;;29.1;41.1
76044;BME280;64740;34.694;33.088;2023-04-03T12:11:40;1037.6;;;29.3;40.7
76044;BME280;64740;34.694;33.088;2023-04-03T12:16:41;1037.5;;;29.5;40.4
76044;BME280;64740;34.694;33.088;2023-04-03T12:21:08;1037.5;;;29.7;39.9
76044;BME280;64740;34.694;33.088;2023-04-03T12:26:26;1037.4;;;29.9;39.6
76044;BME280;64740;34.694;33.088;2023-04-03T12:31:10;1037.4;;;30.1;39.3
76044;BME280;64740;34.694;33.088;2023-04-03T12:36:40;1037.4;;;30.2;39
76044;BME280;64740;34.694;33.088;2023-04-03T12:41:36;1037.3;;;30.2;38.9
76044;BME280;64740;34.694;33.088;2023-04-03T12:45:58;1037.3;;;30.2;39
76044;BME280;64740;34.694;33.088;2023-04-03T12:51:17;1037.3;;;30.2;39
76044;BME280;64740;34.694;33.088;2023-04-03T12:56:24;1037.2;;;30.3;38.7
76044;BME280;64740;34.694;33.088;2023-04-03T13:01:40;1037.1;;;30.5;38.3
76044;BME280;64740;34.694;33.088;2023-04-03T13:06:32;1037;;;30.4;38.1
76044;BME280;64740;34.694;33.088;2023-04-03T13:10:59;1036.9;;;30.5;38
76044;BME280;64740;34.694;33.088;2023-04-03T13:16:12;1036.9;;;30.6;37.8
76044;BME280;64740;34.694;33.088;2023-04-03T13:20:59;1036.8;;;30.7;37.6
76044;BME280;64740;34.694;33.088;2023-04-03T13:26:40;1036.8;;;30.6;37.6
76044;BME280;64740;34.694;33.088;2023-04-03T13:31:30;1036.7;;;30.7;37.3
76044;BME280;64740;34.694;33.088;2023-04-03T13:36:00;1036.7;;;30.9;37.2
76044;BME280;64740;34.694;33.088;2023-04-03T13:41:23;1036.6;;;31;36.9
76044;BME280;64740;34.694;33.088;2023-04-03T13:46:20;1036.5;;;31.1;36.8
76044;BME280;64740;34.694;33.088;2023-04-03T13:51:42;1036.5;;;31.1;36.6
76044;BME280;64740;34.694;33.088;2023-04-03T13:56:34;1036.4;;;31.2;36.5
76044;BME280;64740;34.694;33.088;2023-04-03T14:01:09;1036.4;;;31.1;36.4
76044;BME280;64740;34.694;33.088;2023-04-03T14:06:20;1036.3;;;31.2;36.3
76044;BME280;64740;34.694;33.088;2023-04-03T14:10:58;1036.2;;;31.1;36.1
76044;BME280;64740;34.694;33.088;2023-04-03T14:16:43;1036.1;;;31.1;36
76044;BME280;64740;34.694;33.088;2023-04-03T14:21:34;1036;;;31;36.1
76044;BME280;64740;34.694;33.088;2023-04-03T14:26:09;1036;;;31;36.1
76044;BME280;64740;34.694;33.088;2023-04-03T14:31:14;1035.9;;;30.8;36.2
76044;BME280;64740;34.694;33.088;2023-04-03T14:35:58;1035.8;;;30.7;36.3
76044;BME280;64740;34.694;33.088;2023-04-03T14:41:42;1035.8;;;30.6;36.4
76044;BME280;64740;34.694;33.088;2023-04-03T14:46:35;1035.8;;;30.4;36.7
76044;BME280;64740;34.694;33.088;2023-04-03T14:51:14;1035.8;;;30.2;36.9
76044;BME280;64740;34.694;33.088;2023-04-03T14:56:11;1035.8;;;30;37.3
76044;BME280;64740;34.694;33.088;2023-04-03T15:00:58;1035.8;;;29.8;37.6
76044;BME280;64740;34.694;33.088;2023-04-03T15:05:58;1035.8;;;29.6;38
76044;BME280;64740;34.694;33.088;2023-04-03T15:11:44;1035.8;;;29.4;38.3
76044;BME280;64740;34.694;33.088;2023-04-03T15:16:20;1035.7;;;29.2;38.6
76044;BME280;64740;34.694;33.088;2023-04-03T15:21:14;1035.7;;;28.9;39
76044;BME280;64740;34.694;33.088;2023-04-03T15:26:10;1035.8;;;28.5;39.6
76044;BME280;64740;34.694;33.088;2023-04-03T15:31:14;1035.7;;;27.9;40.5
76044;BME280;64740;34.694;33.088;2023-04-03T15:36:42;1035.7;;;27.2;41.6
76044;BME280;64740;34.694;33.088;2023-04-03T15:41:37;1035.7;;;26.6;42.7
76044;BME280;64740;34.694;33.088;2023-04-03T15:46:29;1035.6;;;26;43.8
76044;BME280;64740;34.694;33.088;2023-04-03T16:21:30;1035.6;;;25.6;44.8
76044;BME280;64740;34.694;33.088;2023-04-03T16:26:00;1035.6;;;24.4;48.1
76044;BME280;64740;34.694;33.088;2023-04-03T16:31:14;1035.5;;;23.2;51.5
76044;BME280;64740;34.694;33.088;2023-04-03T16:36:44;1035.4;;;23;52.1
76044;BME280;64740;34.694;33.088;2023-04-03T16:41:10;1035.4;;;22.9;52.7
76044;BME280;64740;34.694;33.088;2023-04-03T16:46:30;1035.3;;;22.8;53.4
76044;BME280;64740;34.694;33.088;2023-04-03T16:51:22;1035.3;;;22.7;53.8
76044;BME280;64740;34.694;33.088;2023-04-03T16:56:24;1035.2;;;22.7;54
76044;BME280;64740;34.694;33.088;2023-04-03T17:01:44;1035.1;;;22.6;54.1
76044;BME280;64740;34.694;33.088;2023-04-03T17:06:11;1035.1;;;22.5;54.1
76044;BME280;64740;34.694;33.088;2023-04-03T17:11:30;1035;;;22.5;54.1
76044;BME280;64740;34.694;33.088;2023-04-03T17:16:11;1035;;;22.5;53.6
76044;BME280;64740;34.694;33.088;2023-04-03T17:21:32;1035;;;22.4;53.2
76044;BME280;64740;34.694;33.088;2023-04-03T17:26:44;1035;;;22.4;52.9
76044;BME280;64740;34.694;33.088;2023-04-03T17:31:01;1035;;;22.3;52.7
76044;BME280;64740;34.694;33.088;2023-04-03T17:36:30;1035;;;22.2;52.5
76044;BME280;64740;34.694;33.088;2023-04-03T17:41:01;1035;;;22.1;52.2
76044;BME280;64740;34.694;33.088;2023-04-03T17:46:24;1035.1;;;22;51.7
76044;BME280;64740;34.694;33.088;2023-04-03T17:51:44;1035.1;;;21.9;51.4
76044;BME280;64740;34.694;33.088;2023-04-03T17:56:24;1035.2;;;21.9;51
76044;BME280;64740;34.694;33.088;2023-04-03T18:01:30;1035.2;;;21.8;50.9
76044;BME280;64740;34.694;33.088;2023-04-03T18:06:01;1035.2;;;21.8;50.6
76044;BME280;64740;34.694;33.088;2023-04-03T18:11:00;1035.2;;;21.7;50.4
76044;BME280;64740;34.694;33.088;2023-04-03T18:16:40;1035.3;;;21.6;50.1
76044;BME280;64740;34.694;33.088;2023-04-03T18:21:22;1035.3;;;21.6;50
76044;BME280;64740;34.694;33.088;2023-04-03T18:26:28;1035.3;;;21.5;49.9
76044;BME280;64740;34.694;33.088;2023-04-03T18:31:29;1035.2;;;21.5;49.8
76044;BME280;64740;34.694;33.088;2023-04-03T18:36:22;1035.3;;;21.4;49.4
76044;BME280;64740;34.694;33.088;2023-04-03T18:41:44;1035.3;;;21.4;49
76044;BME280;64740;34.694;33.088;2023-04-03T18:46:24;1035.3;;;21.3;48.7
76044;BME280;64740;34.694;33.088;2023-04-03T18:51:30;1035.3;;;21.2;48.5
76044;BME280;64740;34.694;33.088;2023-04-03T18:56:00;1035.3;;;21.1;48
76044;BME280;64740;34.694;33.088;2023-04-03T19:01:24;1035.4;;;21;47.6
76044;BME280;64740;34.694;33.088;2023-04-03T19:06:44;1035.5;;;20.9;47.9
76044;BME280;64740;34.694;33.088;2023-04-03T19:11:24;1035.4;;;20.9;47.5
76044;BME280;64740;34.694;33.088;2023-04-03T19:16:30;1035.3;;;20.8;47.1
76044;BME280;64740;34.694;33.088;2023-04-03T19:21:12;1035.3;;;20.8;46.8
76044;BME280;64740;34.694;33.088;2023-04-03T19:26:24;1035.3;;;20.7;46.6
76044;BME280;64740;34.694;33.088;2023-04-03T19:31:44;1035.3;;;20.5;46.3
76044;BME280;64740;34.694;33.088;2023-04-03T19:36:26;1035.3;;;20.5;46.1
76044;BME280;64740;34.694;33.088;2023-04-03T19:41:30;1035.2;;;20.4;45.7
76044;BME280;64740;34.694;33.088;2023-04-03T19:46:00;1035.2;;;20.4;45.4
76044;BME280;64740;34.694;33.088;2023-04-03T19:51:22;1035.1;;;20.4;45
76044;BME280;64740;34.694;33.088;2023-04-03T19:56:44;1035.1;;;20.4;44.7
76044;BME280;64740;34.694;33.088;2023-04-03T20:01:34;1035.1;;;20.3;43.8
76044;BME280;64740;34.694;33.088;2023-04-03T20:06:30;1035.1;;;20.4;43.6
76044;BME280;64740;34.694;33.088;2023-04-03T20:11:00;1035.1;;;20.4;43.1
76044;BME280;64740;34.694;33.088;2023-04-03T20:16:24;1035.1;;;20.5;42.6
76044;BME280;64740;34.694;33.088;2023-04-03T20:21:38;1035;;;20.6;42.4
76044;BME280;64740;34.694;33.088;2023-04-03T20:26:25;1034.9;;;20.6;41.9
76044;BME280;64740;34.694;33.088;2023-04-03T20:31:16;1034.9;;;20.6;41.5
76044;BME280;64740;34.694;33.088;2023-04-03T20:36:10;1034.9;;;20.5;41.2
76044;BME280;64740;34.694;33.088;2023-04-03T20:41:00;1034.8;;;20.5;41.2
76044;BME280;64740;34.694;33.088;2023-04-03T20:46:44;1034.8;;;20.5;40.8
76044;BME280;64740;34.694;33.088;2023-04-03T20:51:36;1034.8;;;20.4;40.4
76044;BME280;64740;34.694;33.088;2023-04-03T20:56:30;1034.7;;;20.4;40.4
76044;BME280;64740;34.694;33.088;2023-04-03T21:01:13;1034.7;;;20.3;40
76044;BME280;64740;34.694;33.088;2023-04-03T21:21:32;1034.7;;;19.6;38.4
76044;BME280;64740;34.694;33.088;2023-04-03T21:26:00;1034.7;;;19.5;38.6
76044;BME280;64740;34.694;33.088;2023-04-03T21:31:46;1034.6;;;19.4;38.8
76044;BME280;64740;34.694;33.088;2023-04-03T21:36:44;1034.6;;;19.5;38.3
76044;BME280;64740;34.694;33.088;2023-04-03T21:41:14;1034.6;;;19.5;37.9
76044;BME280;64740;34.694;33.088;2023-04-03T21:46:30;1034.6;;;19.4;37.3
76044;BME280;64740;34.694;33.088;2023-04-03T21:51:00;1034.6;;;19.3;37.3
76044;BME280;64740;34.694;33.088;2023-04-03T21:56:30;1034.5;;;19.2;37.4
76044;BME280;64740;34.694;33.088;2023-04-03T22:01:44;1034.5;;;19.2;37.1
76044;BME280;64740;34.694;33.088;2023-04-03T22:06:24;1034.5;;;19.2;36.8
76044;BME280;64740;34.694;33.088;2023-04-03T22:11:30;1034.4;;;19.2;37
76044;BME280;64740;34.694;33.088;2023-04-03T22:16:10;1034.3;;;19.2;37.1
76044;BME280;64740;34.694;33.088;2023-04-03T22:21:24;1034.2;;;19.2;36.3
76044;BME280;64740;34.694;33.088;2023-04-03T22:26:44;1034.1;;;19.2;36.1
76044;BME280;64740;34.694;33.088;2023-04-03T22:31:24;1034.1;;;19.2;35.7
76044;BME280;64740;34.694;33.088;2023-04-03T22:36:30;1034;;;19.3;35.9
76044;BME280;64740;34.694;33.088;2023-04-03T22:41:10;1034;;;19.3;35.5
76044;BME280;64740;34.694;33.088;2023-04-03T22:46:30;1034;;;19.4;35.5
76044;BME280;64740;34.694;33.088;2023-04-03T22:51:44;1033.9;;;19.4;35.6
76044;BME280;64740;34.694;33.088;2023-04-03T22:56:24;1033.9;;;19.6;35.3
76044;BME280;64740;34.694;33.088;2023-04-03T23:01:28;1033.9;;;19.6;34.9
76044;BME280;64740;34.694;33.088;2023-04-03T23:05:58;1033.9;;;19.7;35.1
76044;BME280;64740;34.694;33.088;2023-04-03T23:11:28;1033.8;;;19.7;35.1
76044;BME280;64740;34.694;33.088;2023-04-03T23:16:42;1033.8;;;19.7;34.7
76044;BME280;64740;34.694;33.088;2023-04-03T23:21:22;1033.8;;;19.7;33.6
76044;BME280;64740;34.694;33.088;2023-04-03T23:26:12;1033.7;;;19.6;34
76044;BME280;64740;34.694;33.088;2023-04-03T23:31:06;1033.7;;;19.7;33.6
76044;BME280;64740;34.694;33.088;2023-04-03T23:36:26;1033.7;;;19.7;33.9
76044;BME280;64740;34.694;33.088;2023-04-03T23:41:38;1033.8;;;19.8;33.3
76044;BME280;64740;34.694;33.088;2023-04-03T23:46:10;1033.7;;;19.8;33
76044;BME280;64740;34.694;33.088;2023-04-03T23:51:24;1033.6;;;19.8;33.6
76044;BME280;64740;34.694;33.088;2023-04-03T23:55:56;1033.6;;;19.9;33.3
